Battle Creek, MI (49014)

2:38 PM EST on February 06, 2016 (GMT -0500)
Wattles Park | | Change Station
CLOSE
Current Station
Personal Weather Station
Location: Battle Creek, MI
Elevation: 903 ft
Nearby Weather Stations

Elev 903 ft 42.32 °N, 85.11 °W | Updated 4 seconds ago

Clear
Clear
34.1 °F
Feels Like 24 °F
N
15.0
Wind Variable Wind from SW
Gusts 15.0 mph

Today
High -- | Low -- °F
--% Chance of Precip.
Yesterday
High -- | Low -- °F
Precip. -- in
Pressure 30.22 in
Visibility 10.0 miles
Clouds Clear
Windchill 24 °F
Dew Point 20 °F
Humidity 56%
Rainfall 0.00 in
Snow Depth Not available.
7:48 AM 6:00 PM
Waning Crescent, 4% visible
METAR KBTL 061853Z 23013KT 10SM CLR 01/M06 A3019 RMK AO2 SLP234 T00111056
Pressure 30.22 in
Visibility 10.0 miles
Clouds Clear
Windchill 24 °F
Dew Point 20 °F
Humidity 56%
Rainfall 0.00 in
Snow Depth Not available.
7:48 AM 6:00 PM
Waning Crescent, 4% visible
METAR KBTL 061853Z 23013KT 10SM CLR 01/M06 A3019 RMK AO2 SLP234 T00111056

10-Day Weather Forecast

Almanac

Astronomy

Feb. 06, 2016 Rise Set
Actual Time
Civil Twilight
Nautical Twilight
Astronomical Twilight
Moon
Length of Visible Light
Length of Day
Tomorrow will be .
, % of the Moon is Illuminated

Today's Extremes

State Highs State Lows

Community

WunderPhotos

Upload Photos

1,891,037 photos uploaded!

WunderBlog® & News

Nearby

Air Quality

  Air Quality AQ Index Pollutant
Not available.

Snow Depth

Station Depth Elevation

Earthquake Activity

City Distance Mag. Time & Date
Minimum magnitude displayed is 2.5.

Coastal Water Temperatures

Place Temperature

Stations

Nearby Weather Stations

Station Location Temp. Windchill Dew Point Humidity Wind Precip. Elev Updated Type
                   

Watches & Warnings

There are currently no watches in effect.